Amarillo, TX (79101)

3:42 PM CDT on May 24, 2015 (GMT -0500)
Oliver-Eakle | | Change Station
CLOSE
Current Station
Personal Weather Station
Location: Amarillo, TX
Elevation: 3678 ft
Nearby Weather Stations

Elev 3678 ft 35.19 °N, 101.84 °W | Updated 1 second ago

Clear
Clear
79.1 °F
Feels Like 80 °F
N
9.4
Wind Variable Wind from SSW
Gusts 15.0 mph

Today
High -- | Low -- °F
--% Chance of Precip.
Yesterday
High -- | Low -- °F
Precip. -- in
6:37 AM 8:51 PM
Waxing Crescent, 42% visible
Pressure 29.72 in
Visibility 10.0 miles
Clouds Few 3900 ft
Heat Index 80 °F
Dew Point 55 °F
Humidity 43%
Rainfall 0.00 in
Snow Depth Not available.
UV 11 out of 12
Pollen 6.50 out of 12
Air Quality Not available.
Flu Activity Sporadic
METAR KAMA 241953Z AUTO 18014KT 10SM FEW039 23/14 A2984 RMK AO2 SLP064 T02330139

More Conditions Fewer Conditions

Pressure 29.72 in
Visibility 10.0 miles
Clouds Few 3900 ft
Heat Index 80 °F
Dew Point 55 °F
Humidity 43%
Rainfall 0.00 in
Snow Depth Not available.
UV 11 out of 12
Pollen 6.50 out of 12
Air Quality Not available.
Flu Activity Sporadic
METAR KAMA 241953Z AUTO 18014KT 10SM FEW039 23/14 A2984 RMK AO2 SLP064 T02330139

More Conditions Fewer Conditions

10-Day Weather Forecast

Almanac

Astronomy

May. 24, 2015 Rise Set
Actual Time
Civil Twilight
Nautical Twilight
Astronomical Twilight
Moon
Length of Visible Light
Length of Day
Tomorrow will be .
, % of the Moon is Illuminated

Today's Extremes

State Highs State Lows

Community

WunderPhotos

Upload Photos

1,823,862 photos uploaded!

WunderBlogs® & News

Nearby

Air Quality

  Air Quality AQ Index Pollutant
Not available.

Snow Depth

Station Depth Elevation

Earthquake Activity

City Distance Mag. Time & Date
Minimum magnitude displayed is 2.5.

Coastal Water Temperatures

Place Temperature

Stations

Nearby Weather Stations

Station Location Temp. Windchill Dew Point Humidity Wind Precip. Elev Updated Type